Choir, Mongolia
Current Conditions -  °F | °C
As of 9:30 PM on Monday 20 Oct 2014 (Local Time) from ZMUB Reporting Station
Clear Clear  
Wind Chill: 27°   Ceiling: Unl
Heat Index: 27°   Visibility: 6mi
Dew Point: 14°   Wind: 2mph
Humidity: 59%   Direction: NA
Pressure: 30.15"   Gusts: NA
Location:  46.45°N, 108.22°E
Report Text: ZMUB 201330Z VRB01MPS CAVOK M03/M10 Q1021 NOSIG RMK QFE658.3 57
Loading
Personal Weather Stations






























Interactive Weather Map
Tropical Storm Tracking
New forecast layout! Learn more

10-Day Weather Forecast

Advertisements
Track Severe Weather on mobile